sensor_id;sensor_type;location;lat;lon;timestamp;temperature;humidity
14733;DHT22;7457;50.960;6.830;2023-07-28T00:00:58;16.80;100.00
14733;DHT22;7457;50.960;6.830;2023-07-28T00:03:24;16.80;100.00
14733;DHT22;7457;50.960;6.830;2023-07-28T00:05:50;16.80;100.00
14733;DHT22;7457;50.960;6.830;2023-07-28T00:08:15;16.80;100.00
14733;DHT22;7457;50.960;6.830;2023-07-28T00:10:41;16.80;100.00
14733;DHT22;7457;50.960;6.830;2023-07-28T00:13:07;16.80;100.00
14733;DHT22;7457;50.960;6.830;2023-07-28T00:15:33;16.80;100.00
14733;DHT22;7457;50.960;6.830;2023-07-28T00:17:59;16.80;100.00
14733;DHT22;7457;50.960;6.830;2023-07-28T00:20:28;16.80;100.00
14733;DHT22;7457;50.960;6.830;2023-07-28T00:22:53;16.80;100.00
14733;DHT22;7457;50.960;6.830;2023-07-28T00:25:19;16.80;100.00
14733;DHT22;7457;50.960;6.830;2023-07-28T00:27:45;16.80;100.00
14733;DHT22;7457;50.960;6.830;2023-07-28T00:30:11;16.80;100.00
14733;DHT22;7457;50.960;6.830;2023-07-28T00:32:37;16.80;100.00
14733;DHT22;7457;50.960;6.830;2023-07-28T00:35:03;16.80;100.00
14733;DHT22;7457;50.960;6.830;2023-07-28T00:37:29;16.80;100.00
14733;DHT22;7457;50.960;6.830;2023-07-28T00:39:54;16.90;100.00
14733;DHT22;7457;50.960;6.830;2023-07-28T00:42:20;16.90;100.00
14733;DHT22;7457;50.960;6.830;2023-07-28T00:44:46;16.90;100.00
14733;DHT22;7457;50.960;6.830;2023-07-28T00:47:11;16.90;100.00
14733;DHT22;7457;50.960;6.830;2023-07-28T00:49:38;16.90;100.00
14733;DHT22;7457;50.960;6.830;2023-07-28T00:52:07;16.90;100.00
14733;DHT22;7457;50.960;6.830;2023-07-28T00:54:33;16.90;100.00
14733;DHT22;7457;50.960;6.830;2023-07-28T00:57:00;16.90;100.00
14733;DHT22;7457;50.960;6.830;2023-07-28T00:59:27;16.90;100.00
14733;DHT22;7457;50.960;6.830;2023-07-28T01:01:52;16.90;100.00
14733;DHT22;7457;50.960;6.830;2023-07-28T01:04:18;16.90;100.00
14733;DHT22;7457;50.960;6.830;2023-07-28T01:06:59;16.90;100.00
14733;DHT22;7457;50.960;6.830;2023-07-28T01:09:34;16.90;100.00
14733;DHT22;7457;50.960;6.830;2023-07-28T01:12:07;16.90;100.00
14733;DHT22;7457;50.960;6.830;2023-07-28T01:14:33;16.90;100.00
14733;DHT22;7457;50.960;6.830;2023-07-28T01:16:58;16.90;100.00
14733;DHT22;7457;50.960;6.830;2023-07-28T01:19:24;16.90;100.00
14733;DHT22;7457;50.960;6.830;2023-07-28T01:22:03;16.90;100.00
14733;DHT22;7457;50.960;6.830;2023-07-28T01:27:12;16.90;100.00
14733;DHT22;7457;50.960;6.830;2023-07-28T01:29:38;16.90;100.00
14733;DHT22;7457;50.960;6.830;2023-07-28T01:32:04;16.90;100.00
14733;DHT22;7457;50.960;6.830;2023-07-28T01:34:30;16.90;100.00
14733;DHT22;7457;50.960;6.830;2023-07-28T01:36:56;16.90;100.00
14733;DHT22;7457;50.960;6.830;2023-07-28T01:39:21;16.90;100.00
14733;DHT22;7457;50.960;6.830;2023-07-28T01:41:47;16.90;100.00
14733;DHT22;7457;50.960;6.830;2023-07-28T01:44:12;16.90;100.00
14733;DHT22;7457;50.960;6.830;2023-07-28T01:46:38;16.90;100.00
14733;DHT22;7457;50.960;6.830;2023-07-28T01:49:04;16.90;100.00
14733;DHT22;7457;50.960;6.830;2023-07-28T01:51:30;16.90;100.00
14733;DHT22;7457;50.960;6.830;2023-07-28T01:53:56;16.90;100.00
14733;DHT22;7457;50.960;6.830;2023-07-28T01:56:21;16.90;100.00
14733;DHT22;7457;50.960;6.830;2023-07-28T01:58:47;16.80;100.00
14733;DHT22;7457;50.960;6.830;2023-07-28T02:01:13;16.80;100.00
14733;DHT22;7457;50.960;6.830;2023-07-28T02:03:38;16.80;100.00
14733;DHT22;7457;50.960;6.830;2023-07-28T02:06:04;16.80;100.00
14733;DHT22;7457;50.960;6.830;2023-07-28T02:08:30;16.80;100.00
14733;DHT22;7457;50.960;6.830;2023-07-28T02:10:55;16.80;100.00
14733;DHT22;7457;50.960;6.830;2023-07-28T02:13:21;16.70;100.00
14733;DHT22;7457;50.960;6.830;2023-07-28T02:15:46;16.80;100.00
14733;DHT22;7457;50.960;6.830;2023-07-28T02:18:12;16.70;100.00
14733;DHT22;7457;50.960;6.830;2023-07-28T02:20:38;16.80;100.00
14733;DHT22;7457;50.960;6.830;2023-07-28T02:23:04;16.80;100.00
14733;DHT22;7457;50.960;6.830;2023-07-28T02:25:30;16.80;100.00
14733;DHT22;7457;50.960;6.830;2023-07-28T02:27:55;16.70;100.00
14733;DHT22;7457;50.960;6.830;2023-07-28T02:30:21;16.80;100.00
14733;DHT22;7457;50.960;6.830;2023-07-28T02:32:47;16.80;100.00
14733;DHT22;7457;50.960;6.830;2023-07-28T02:35:12;16.80;100.00
14733;DHT22;7457;50.960;6.830;2023-07-28T02:37:38;16.80;100.00
14733;DHT22;7457;50.960;6.830;2023-07-28T02:40:04;16.80;100.00
14733;DHT22;7457;50.960;6.830;2023-07-28T02:42:30;16.80;100.00
14733;DHT22;7457;50.960;6.830;2023-07-28T02:44:56;16.80;100.00
14733;DHT22;7457;50.960;6.830;2023-07-28T02:47:21;16.80;100.00
14733;DHT22;7457;50.960;6.830;2023-07-28T02:49:47;16.80;100.00
14733;DHT22;7457;50.960;6.830;2023-07-28T02:52:13;16.80;100.00
14733;DHT22;7457;50.960;6.830;2023-07-28T02:54:38;16.80;100.00
14733;DHT22;7457;50.960;6.830;2023-07-28T02:57:04;16.80;100.00
14733;DHT22;7457;50.960;6.830;2023-07-28T02:59:30;16.80;100.00
14733;DHT22;7457;50.960;6.830;2023-07-28T03:01:55;16.80;100.00
14733;DHT22;7457;50.960;6.830;2023-07-28T03:04:22;16.80;100.00
14733;DHT22;7457;50.960;6.830;2023-07-28T03:06:48;16.80;100.00
14733;DHT22;7457;50.960;6.830;2023-07-28T03:09:14;16.80;100.00
14733;DHT22;7457;50.960;6.830;2023-07-28T03:11:42;16.80;100.00
14733;DHT22;7457;50.960;6.830;2023-07-28T03:14:08;16.80;100.00
14733;DHT22;7457;50.960;6.830;2023-07-28T03:16:33;16.80;100.00
14733;DHT22;7457;50.960;6.830;2023-07-28T03:18:59;16.80;100.00
14733;DHT22;7457;50.960;6.830;2023-07-28T03:21:25;16.80;100.00
14733;DHT22;7457;50.960;6.830;2023-07-28T03:23:50;16.80;100.00
14733;DHT22;7457;50.960;6.830;2023-07-28T03:26:16;16.80;100.00
14733;DHT22;7457;50.960;6.830;2023-07-28T03:28:41;16.80;100.00
14733;DHT22;7457;50.960;6.830;2023-07-28T03:31:07;16.80;100.00
14733;DHT22;7457;50.960;6.830;2023-07-28T03:33:33;16.80;100.00
14733;DHT22;7457;50.960;6.830;2023-07-28T03:35:58;16.80;100.00
14733;DHT22;7457;50.960;6.830;2023-07-28T03:38:24;16.80;100.00
14733;DHT22;7457;50.960;6.830;2023-07-28T03:40:50;16.80;100.00
14733;DHT22;7457;50.960;6.830;2023-07-28T03:43:16;16.80;100.00
14733;DHT22;7457;50.960;6.830;2023-07-28T03:45:41;16.80;100.00
14733;DHT22;7457;50.960;6.830;2023-07-28T03:48:07;16.90;100.00
14733;DHT22;7457;50.960;6.830;2023-07-28T03:50:33;16.90;100.00
14733;DHT22;7457;50.960;6.830;2023-07-28T03:52:58;16.90;100.00
14733;DHT22;7457;50.960;6.830;2023-07-28T03:55:24;16.90;100.00
14733;DHT22;7457;50.960;6.830;2023-07-28T03:57:50;16.90;100.00
14733;DHT22;7457;50.960;6.830;2023-07-28T04:00:15;16.90;100.00
14733;DHT22;7457;50.960;6.830;2023-07-28T04:02:41;16.90;100.00
14733;DHT22;7457;50.960;6.830;2023-07-28T04:05:07;16.90;100.00
14733;DHT22;7457;50.960;6.830;2023-07-28T04:07:33;16.90;100.00
14733;DHT22;7457;50.960;6.830;2023-07-28T04:09:58;16.90;100.00
14733;DHT22;7457;50.960;6.830;2023-07-28T04:12:24;16.90;100.00
14733;DHT22;7457;50.960;6.830;2023-07-28T04:14:49;16.90;100.00
14733;DHT22;7457;50.960;6.830;2023-07-28T04:17:15;16.90;100.00
14733;DHT22;7457;50.960;6.830;2023-07-28T04:19:41;16.90;100.00
14733;DHT22;7457;50.960;6.830;2023-07-28T04:22:06;16.90;100.00
14733;DHT22;7457;50.960;6.830;2023-07-28T04:24:32;16.90;100.00
14733;DHT22;7457;50.960;6.830;2023-07-28T04:26:57;16.90;100.00
14733;DHT22;7457;50.960;6.830;2023-07-28T04:29:23;17.00;100.00
14733;DHT22;7457;50.960;6.830;2023-07-28T04:31:49;17.00;100.00
14733;DHT22;7457;50.960;6.830;2023-07-28T04:34:14;17.00;100.00
14733;DHT22;7457;50.960;6.830;2023-07-28T04:36:40;17.00;100.00
14733;DHT22;7457;50.960;6.830;2023-07-28T04:39:06;17.00;100.00
14733;DHT22;7457;50.960;6.830;2023-07-28T04:41:31;17.00;100.00
14733;DHT22;7457;50.960;6.830;2023-07-28T04:43:57;17.10;100.00
14733;DHT22;7457;50.960;6.830;2023-07-28T04:46:22;17.10;100.00
14733;DHT22;7457;50.960;6.830;2023-07-28T04:48:48;17.10;100.00
14733;DHT22;7457;50.960;6.830;2023-07-28T04:51:14;17.10;100.00
14733;DHT22;7457;50.960;6.830;2023-07-28T04:53:39;17.20;100.00
14733;DHT22;7457;50.960;6.830;2023-07-28T04:56:05;17.20;100.00
14733;DHT22;7457;50.960;6.830;2023-07-28T04:58:30;17.20;100.00
14733;DHT22;7457;50.960;6.830;2023-07-28T05:00:56;17.20;100.00
14733;DHT22;7457;50.960;6.830;2023-07-28T05:03:22;17.20;100.00
14733;DHT22;7457;50.960;6.830;2023-07-28T05:05:47;17.20;100.00
14733;DHT22;7457;50.960;6.830;2023-07-28T05:08:13;17.20;100.00
14733;DHT22;7457;50.960;6.830;2023-07-28T05:10:40;17.30;100.00
14733;DHT22;7457;50.960;6.830;2023-07-28T05:13:06;17.30;100.00
14733;DHT22;7457;50.960;6.830;2023-07-28T05:15:31;17.30;100.00
14733;DHT22;7457;50.960;6.830;2023-07-28T05:17:57;17.30;100.00
14733;DHT22;7457;50.960;6.830;2023-07-28T05:20:22;17.30;100.00
14733;DHT22;7457;50.960;6.830;2023-07-28T05:22:48;17.30;100.00
14733;DHT22;7457;50.960;6.830;2023-07-28T05:25:14;17.30;100.00
14733;DHT22;7457;50.960;6.830;2023-07-28T05:27:40;17.30;100.00
14733;DHT22;7457;50.960;6.830;2023-07-28T05:30:06;17.40;100.00
14733;DHT22;7457;50.960;6.830;2023-07-28T05:32:32;17.40;100.00
14733;DHT22;7457;50.960;6.830;2023-07-28T05:34:57;17.40;100.00
14733;DHT22;7457;50.960;6.830;2023-07-28T05:37:23;17.40;100.00
14733;DHT22;7457;50.960;6.830;2023-07-28T05:39:49;17.40;100.00
14733;DHT22;7457;50.960;6.830;2023-07-28T05:42:15;17.50;100.00
14733;DHT22;7457;50.960;6.830;2023-07-28T05:44:41;17.50;100.00
14733;DHT22;7457;50.960;6.830;2023-07-28T05:47:06;17.50;100.00
14733;DHT22;7457;50.960;6.830;2023-07-28T05:49:32;17.50;100.00
14733;DHT22;7457;50.960;6.830;2023-07-28T05:51:58;17.50;100.00
14733;DHT22;7457;50.960;6.830;2023-07-28T05:54:23;17.50;100.00
14733;DHT22;7457;50.960;6.830;2023-07-28T05:56:49;17.50;100.00
14733;DHT22;7457;50.960;6.830;2023-07-28T05:59:15;17.50;100.00
14733;DHT22;7457;50.960;6.830;2023-07-28T06:01:41;17.50;100.00
14733;DHT22;7457;50.960;6.830;2023-07-28T06:04:06;17.50;100.00
14733;DHT22;7457;50.960;6.830;2023-07-28T06:06:32;17.50;100.00
14733;DHT22;7457;50.960;6.830;2023-07-28T06:08:57;17.60;100.00
14733;DHT22;7457;50.960;6.830;2023-07-28T06:11:23;17.60;100.00
14733;DHT22;7457;50.960;6.830;2023-07-28T06:13:49;17.60;100.00
14733;DHT22;7457;50.960;6.830;2023-07-28T06:16:15;17.60;100.00
14733;DHT22;7457;50.960;6.830;2023-07-28T06:18:40;17.60;100.00
14733;DHT22;7457;50.960;6.830;2023-07-28T06:21:06;17.60;100.00
14733;DHT22;7457;50.960;6.830;2023-07-28T06:23:32;17.70;100.00
14733;DHT22;7457;50.960;6.830;2023-07-28T06:25:57;17.70;100.00
14733;DHT22;7457;50.960;6.830;2023-07-28T06:28:23;17.80;100.00
14733;DHT22;7457;50.960;6.830;2023-07-28T06:30:54;17.80;100.00
14733;DHT22;7457;50.960;6.830;2023-07-28T06:33:20;17.80;100.00
14733;DHT22;7457;50.960;6.830;2023-07-28T06:35:46;17.80;100.00
14733;DHT22;7457;50.960;6.830;2023-07-28T06:38:12;17.80;100.00
14733;DHT22;7457;50.960;6.830;2023-07-28T06:40:37;17.80;100.00
14733;DHT22;7457;50.960;6.830;2023-07-28T06:43:03;17.90;100.00
14733;DHT22;7457;50.960;6.830;2023-07-28T06:45:28;17.90;100.00
14733;DHT22;7457;50.960;6.830;2023-07-28T06:47:54;17.90;100.00
14733;DHT22;7457;50.960;6.830;2023-07-28T06:50:20;17.90;100.00
14733;DHT22;7457;50.960;6.830;2023-07-28T06:52:45;17.90;100.00
14733;DHT22;7457;50.960;6.830;2023-07-28T06:55:14;17.90;100.00
14733;DHT22;7457;50.960;6.830;2023-07-28T06:57:39;17.90;100.00
14733;DHT22;7457;50.960;6.830;2023-07-28T07:00:06;17.90;100.00
14733;DHT22;7457;50.960;6.830;2023-07-28T07:02:34;18.00;100.00
14733;DHT22;7457;50.960;6.830;2023-07-28T07:05:00;18.00;100.00
14733;DHT22;7457;50.960;6.830;2023-07-28T07:07:26;18.00;100.00
14733;DHT22;7457;50.960;6.830;2023-07-28T07:09:52;18.10;100.00
14733;DHT22;7457;50.960;6.830;2023-07-28T07:12:17;18.10;100.00
14733;DHT22;7457;50.960;6.830;2023-07-28T07:14:44;18.10;100.00
14733;DHT22;7457;50.960;6.830;2023-07-28T07:17:10;18.10;100.00
14733;DHT22;7457;50.960;6.830;2023-07-28T07:19:36;18.10;100.00
14733;DHT22;7457;50.960;6.830;2023-07-28T07:22:01;18.20;100.00
14733;DHT22;7457;50.960;6.830;2023-07-28T07:24:28;18.20;100.00
14733;DHT22;7457;50.960;6.830;2023-07-28T07:26:54;18.20;100.00
14733;DHT22;7457;50.960;6.830;2023-07-28T07:29:19;18.30;100.00
14733;DHT22;7457;50.960;6.830;2023-07-28T07:31:45;18.30;100.00
14733;DHT22;7457;50.960;6.830;2023-07-28T07:34:11;18.40;100.00
14733;DHT22;7457;50.960;6.830;2023-07-28T07:36:37;18.40;100.00
14733;DHT22;7457;50.960;6.830;2023-07-28T07:39:02;18.40;100.00
14733;DHT22;7457;50.960;6.830;2023-07-28T07:41:30;18.40;100.00
14733;DHT22;7457;50.960;6.830;2023-07-28T07:43:56;18.50;100.00
14733;DHT22;7457;50.960;6.830;2023-07-28T07:46:23;18.50;100.00
14733;DHT22;7457;50.960;6.830;2023-07-28T07:48:49;18.50;100.00
14733;DHT22;7457;50.960;6.830;2023-07-28T07:51:15;18.60;100.00
14733;DHT22;7457;50.960;6.830;2023-07-28T07:53:40;18.60;100.00
14733;DHT22;7457;50.960;6.830;2023-07-28T07:56:07;18.70;100.00
14733;DHT22;7457;50.960;6.830;2023-07-28T07:58:33;18.90;100.00
14733;DHT22;7457;50.960;6.830;2023-07-28T08:00:59;19.00;100.00
14733;DHT22;7457;50.960;6.830;2023-07-28T08:03:25;19.10;100.00
14733;DHT22;7457;50.960;6.830;2023-07-28T08:05:51;19.30;100.00
14733;DHT22;7457;50.960;6.830;2023-07-28T08:08:17;19.40;100.00
14733;DHT22;7457;50.960;6.830;2023-07-28T08:10:45;19.60;100.00
14733;DHT22;7457;50.960;6.830;2023-07-28T08:13:11;19.70;100.00
14733;DHT22;7457;50.960;6.830;2023-07-28T08:15:37;19.80;100.00
14733;DHT22;7457;50.960;6.830;2023-07-28T08:18:02;19.90;100.00
14733;DHT22;7457;50.960;6.830;2023-07-28T08:20:28;20.00;100.00
14733;DHT22;7457;50.960;6.830;2023-07-28T08:22:54;20.10;100.00
14733;DHT22;7457;50.960;6.830;2023-07-28T08:25:19;20.10;100.00
14733;DHT22;7457;50.960;6.830;2023-07-28T08:27:45;20.10;100.00
14733;DHT22;7457;50.960;6.830;2023-07-28T08:30:11;20.20;100.00
14733;DHT22;7457;50.960;6.830;2023-07-28T08:32:36;20.20;100.00
14733;DHT22;7457;50.960;6.830;2023-07-28T08:35:03;20.30;100.00
14733;DHT22;7457;50.960;6.830;2023-07-28T08:37:28;20.40;100.00
14733;DHT22;7457;50.960;6.830;2023-07-28T08:39:54;20.50;100.00
14733;DHT22;7457;50.960;6.830;2023-07-28T08:42:21;20.50;100.00
14733;DHT22;7457;50.960;6.830;2023-07-28T08:44:50;20.60;99.90
14733;DHT22;7457;50.960;6.830;2023-07-28T08:47:18;20.60;99.20
14733;DHT22;7457;50.960;6.830;2023-07-28T08:49:44;20.60;99.40
14733;DHT22;7457;50.960;6.830;2023-07-28T08:52:10;20.70;99.50
14733;DHT22;7457;50.960;6.830;2023-07-28T08:54:36;20.90;99.80
14733;DHT22;7457;50.960;6.830;2023-07-28T08:57:01;21.10;99.70
14733;DHT22;7457;50.960;6.830;2023-07-28T08:59:28;21.50;99.00
14733;DHT22;7457;50.960;6.830;2023-07-28T09:01:57;21.80;98.20
14733;DHT22;7457;50.960;6.830;2023-07-28T09:04:26;22.20;97.40
14733;DHT22;7457;50.960;6.830;2023-07-28T09:06:52;22.50;95.60
14733;DHT22;7457;50.960;6.830;2023-07-28T09:09:21;22.70;93.90
14733;DHT22;7457;50.960;6.830;2023-07-28T09:11:51;22.80;95.40
14733;DHT22;7457;50.960;6.830;2023-07-28T09:14:18;23.20;95.10
14733;DHT22;7457;50.960;6.830;2023-07-28T09:16:45;23.60;93.80
14733;DHT22;7457;50.960;6.830;2023-07-28T09:19:11;24.10;90.10
14733;DHT22;7457;50.960;6.830;2023-07-28T09:21:38;24.30;90.50
14733;DHT22;7457;50.960;6.830;2023-07-28T09:24:05;24.70;89.40
14733;DHT22;7457;50.960;6.830;2023-07-28T09:26:45;25.10;87.50
14733;DHT22;7457;50.960;6.830;2023-07-28T09:29:20;25.30;84.70
14733;DHT22;7457;50.960;6.830;2023-07-28T09:31:47;25.40;83.60
14733;DHT22;7457;50.960;6.830;2023-07-28T09:34:26;25.50;83.20
14733;DHT22;7457;50.960;6.830;2023-07-28T09:36:55;25.40;80.70
14733;DHT22;7457;50.960;6.830;2023-07-28T09:39:22;25.10;80.90
14733;DHT22;7457;50.960;6.830;2023-07-28T09:41:48;24.60;80.70
14733;DHT22;7457;50.960;6.830;2023-07-28T09:44:14;24.10;80.90
14733;DHT22;7457;50.960;6.830;2023-07-28T09:46:51;23.70;82.50
14733;DHT22;7457;50.960;6.830;2023-07-28T09:49:22;23.40;83.60
14733;DHT22;7457;50.960;6.830;2023-07-28T09:51:53;23.20;84.30
14733;DHT22;7457;50.960;6.830;2023-07-28T09:54:24;23.10;84.80
14733;DHT22;7457;50.960;6.830;2023-07-28T09:56:58;23.10;85.40
14733;DHT22;7457;50.960;6.830;2023-07-28T09:59:29;23.10;86.00
14733;DHT22;7457;50.960;6.830;2023-07-28T10:01:58;23.20;85.70
14733;DHT22;7457;50.960;6.830;2023-07-28T10:04:25;23.20;85.60
14733;DHT22;7457;50.960;6.830;2023-07-28T10:06:52;23.20;85.50
14733;DHT22;7457;50.960;6.830;2023-07-28T10:09:25;23.20;84.70
14733;DHT22;7457;50.960;6.830;2023-07-28T10:11:52;23.10;83.80
14733;DHT22;7457;50.960;6.830;2023-07-28T10:14:30;22.90;83.60
14733;DHT22;7457;50.960;6.830;2023-07-28T10:16:59;22.60;84.70
14733;DHT22;7457;50.960;6.830;2023-07-28T10:19:27;22.40;85.60
14733;DHT22;7457;50.960;6.830;2023-07-28T10:22:07;22.20;86.30
14733;DHT22;7457;50.960;6.830;2023-07-28T10:24:55;22.10;87.70
14733;DHT22;7457;50.960;6.830;2023-07-28T10:27:43;22.00;88.90
14733;DHT22;7457;50.960;6.830;2023-07-28T10:30:10;22.00;89.50
14733;DHT22;7457;50.960;6.830;2023-07-28T10:32:48;22.10;89.70
14733;DHT22;7457;50.960;6.830;2023-07-28T10:37:47;22.40;89.10
14733;DHT22;7457;50.960;6.830;2023-07-28T10:40:33;22.40;88.60
14733;DHT22;7457;50.960;6.830;2023-07-28T10:43:03;22.40;88.50
14733;DHT22;7457;50.960;6.830;2023-07-28T10:45:31;22.50;90.00
14733;DHT22;7457;50.960;6.830;2023-07-28T10:47:58;22.80;90.20
14733;DHT22;7457;50.960;6.830;2023-07-28T10:50:29;23.20;88.70
14733;DHT22;7457;50.960;6.830;2023-07-28T10:52:56;23.50;87.00
14733;DHT22;7457;50.960;6.830;2023-07-28T10:55:24;23.70;86.10
14733;DHT22;7457;50.960;6.830;2023-07-28T10:57:51;23.70;84.80
14733;DHT22;7457;50.960;6.830;2023-07-28T11:00:20;23.60;83.90
14733;DHT22;7457;50.960;6.830;2023-07-28T11:02:53;23.50;83.70
14733;DHT22;7457;50.960;6.830;2023-07-28T11:07:45;23.20;84.20
14733;DHT22;7457;50.960;6.830;2023-07-28T11:10:11;23.20;84.70
14733;DHT22;7457;50.960;6.830;2023-07-28T11:12:45;23.30;86.30
14733;DHT22;7457;50.960;6.830;2023-07-28T11:15:13;23.80;86.70
14733;DHT22;7457;50.960;6.830;2023-07-28T11:17:49;24.20;85.20
14733;DHT22;7457;50.960;6.830;2023-07-28T11:22:44;24.60;82.40
14733;DHT22;7457;50.960;6.830;2023-07-28T11:25:10;24.60;81.60
14733;DHT22;7457;50.960;6.830;2023-07-28T11:27:36;24.50;81.10
14733;DHT22;7457;50.960;6.830;2023-07-28T11:30:02;24.50;81.90
14733;DHT22;7457;50.960;6.830;2023-07-28T11:32:30;24.60;82.50
14733;DHT22;7457;50.960;6.830;2023-07-28T11:35:03;24.90;83.00
14733;DHT22;7457;50.960;6.830;2023-07-28T11:37:29;25.40;82.90
14733;DHT22;7457;50.960;6.830;2023-07-28T11:39:56;25.70;80.40
14733;DHT22;7457;50.960;6.830;2023-07-28T11:42:24;25.70;77.80
14733;DHT22;7457;50.960;6.830;2023-07-28T11:44:50;25.40;76.40
14733;DHT22;7457;50.960;6.830;2023-07-28T11:47:18;25.10;76.40
14733;DHT22;7457;50.960;6.830;2023-07-28T11:49:47;25.00;78.10
14733;DHT22;7457;50.960;6.830;2023-07-28T11:52:13;25.10;78.20
14733;DHT22;7457;50.960;6.830;2023-07-28T11:54:39;25.20;77.90
14733;DHT22;7457;50.960;6.830;2023-07-28T11:57:07;25.40;78.00
14733;DHT22;7457;50.960;6.830;2023-07-28T11:59:34;25.60;77.80
14733;DHT22;7457;50.960;6.830;2023-07-28T12:02:02;25.80;76.60
14733;DHT22;7457;50.960;6.830;2023-07-28T12:04:28;26.00;75.30
14733;DHT22;7457;50.960;6.830;2023-07-28T12:09:33;26.10;74.40
14733;DHT22;7457;50.960;6.830;2023-07-28T12:11:59;26.10;74.90
14733;DHT22;7457;50.960;6.830;2023-07-28T12:14:34;26.10;74.50
14733;DHT22;7457;50.960;6.830;2023-07-28T12:17:00;26.00;73.30
14733;DHT22;7457;50.960;6.830;2023-07-28T12:19:28;25.80;73.40
14733;DHT22;7457;50.960;6.830;2023-07-28T12:21:53;25.60;73.90
14733;DHT22;7457;50.960;6.830;2023-07-28T12:24:19;25.40;73.60
14733;DHT22;7457;50.960;6.830;2023-07-28T12:26:50;25.10;73.70
14733;DHT22;7457;50.960;6.830;2023-07-28T12:29:16;24.80;74.60
14733;DHT22;7457;50.960;6.830;2023-07-28T12:31:41;24.50;75.30
14733;DHT22;7457;50.960;6.830;2023-07-28T12:34:07;24.30;76.10
14733;DHT22;7457;50.960;6.830;2023-07-28T12:36:33;24.10;76.50
14733;DHT22;7457;50.960;6.830;2023-07-28T12:38:59;23.90;77.10
14733;DHT22;7457;50.960;6.830;2023-07-28T12:41:24;23.70;77.60
14733;DHT22;7457;50.960;6.830;2023-07-28T12:43:50;23.70;77.50
14733;DHT22;7457;50.960;6.830;2023-07-28T12:46:16;23.60;77.30
14733;DHT22;7457;50.960;6.830;2023-07-28T12:48:41;23.50;77.90
14733;DHT22;7457;50.960;6.830;2023-07-28T12:51:07;23.40;78.40
14733;DHT22;7457;50.960;6.830;2023-07-28T12:53:32;23.30;78.80
14733;DHT22;7457;50.960;6.830;2023-07-28T12:55:58;23.30;78.90
14733;DHT22;7457;50.960;6.830;2023-07-28T12:58:24;23.30;78.90
14733;DHT22;7457;50.960;6.830;2023-07-28T13:00:50;23.20;78.80
14733;DHT22;7457;50.960;6.830;2023-07-28T13:03:15;23.20;78.70
14733;DHT22;7457;50.960;6.830;2023-07-28T13:05:41;23.00;79.00
14733;DHT22;7457;50.960;6.830;2023-07-28T13:08:08;22.90;79.90
14733;DHT22;7457;50.960;6.830;2023-07-28T13:10:34;22.90;80.40
14733;DHT22;7457;50.960;6.830;2023-07-28T13:12:59;22.90;80.50
14733;DHT22;7457;50.960;6.830;2023-07-28T13:15:25;22.90;80.80
14733;DHT22;7457;50.960;6.830;2023-07-28T13:17:51;23.00;81.50
14733;DHT22;7457;50.960;6.830;2023-07-28T13:20:16;23.10;81.80
14733;DHT22;7457;50.960;6.830;2023-07-28T13:22:42;23.40;81.70
14733;DHT22;7457;50.960;6.830;2023-07-28T13:25:08;23.70;80.80
14733;DHT22;7457;50.960;6.830;2023-07-28T13:27:34;24.00;80.10
14733;DHT22;7457;50.960;6.830;2023-07-28T13:29:59;24.20;78.80
14733;DHT22;7457;50.960;6.830;2023-07-28T13:32:25;24.20;77.90
14733;DHT22;7457;50.960;6.830;2023-07-28T13:34:51;24.20;77.90
14733;DHT22;7457;50.960;6.830;2023-07-28T13:37:18;24.10;78.00
14733;DHT22;7457;50.960;6.830;2023-07-28T13:39:45;24.10;78.70
14733;DHT22;7457;50.960;6.830;2023-07-28T13:42:10;24.20;79.70
14733;DHT22;7457;50.960;6.830;2023-07-28T13:44:37;24.40;79.90
14733;DHT22;7457;50.960;6.830;2023-07-28T13:47:03;24.80;80.10
14733;DHT22;7457;50.960;6.830;2023-07-28T13:49:31;25.20;79.60
14733;DHT22;7457;50.960;6.830;2023-07-28T13:51:56;25.60;77.40
14733;DHT22;7457;50.960;6.830;2023-07-28T13:54:22;25.70;75.70
14733;DHT22;7457;50.960;6.830;2023-07-28T13:56:48;25.70;74.70
14733;DHT22;7457;50.960;6.830;2023-07-28T13:59:13;25.60;74.00
14733;DHT22;7457;50.960;6.830;2023-07-28T14:01:39;25.40;74.20
14733;DHT22;7457;50.960;6.830;2023-07-28T14:04:05;25.40;74.70
14733;DHT22;7457;50.960;6.830;2023-07-28T14:06:31;25.20;74.30
14733;DHT22;7457;50.960;6.830;2023-07-28T14:08:57;25.10;74.00
14733;DHT22;7457;50.960;6.830;2023-07-28T14:11:22;25.00;73.90
14733;DHT22;7457;50.960;6.830;2023-07-28T14:13:48;24.80;74.20
14733;DHT22;7457;50.960;6.830;2023-07-28T14:16:14;24.70;74.80
14733;DHT22;7457;50.960;6.830;2023-07-28T14:18:39;24.50;75.00
14733;DHT22;7457;50.960;6.830;2023-07-28T14:21:06;24.50;75.60
14733;DHT22;7457;50.960;6.830;2023-07-28T14:23:31;24.50;75.40
14733;DHT22;7457;50.960;6.830;2023-07-28T14:25:57;24.50;75.50
14733;DHT22;7457;50.960;6.830;2023-07-28T14:28:23;24.50;75.40
14733;DHT22;7457;50.960;6.830;2023-07-28T14:30:50;24.50;75.00
14733;DHT22;7457;50.960;6.830;2023-07-28T14:33:17;24.40;75.30
14733;DHT22;7457;50.960;6.830;2023-07-28T14:35:45;24.30;75.80
14733;DHT22;7457;50.960;6.830;2023-07-28T14:38:12;24.20;76.00
14733;DHT22;7457;50.960;6.830;2023-07-28T14:40:38;24.20;75.90
14733;DHT22;7457;50.960;6.830;2023-07-28T14:43:06;24.10;76.10
14733;DHT22;7457;50.960;6.830;2023-07-28T14:45:31;24.10;76.10
14733;DHT22;7457;50.960;6.830;2023-07-28T14:47:57;24.00;76.40
14733;DHT22;7457;50.960;6.830;2023-07-28T14:50:23;24.00;76.90
14733;DHT22;7457;50.960;6.830;2023-07-28T14:52:49;24.00;77.30
14733;DHT22;7457;50.960;6.830;2023-07-28T14:55:14;24.00;78.20
14733;DHT22;7457;50.960;6.830;2023-07-28T14:57:40;24.20;78.60
14733;DHT22;7457;50.960;6.830;2023-07-28T15:00:06;24.50;77.80
14733;DHT22;7457;50.960;6.830;2023-07-28T15:02:33;24.70;76.90
14733;DHT22;7457;50.960;6.830;2023-07-28T15:04:59;24.90;77.10
14733;DHT22;7457;50.960;6.830;2023-07-28T15:07:24;25.00;76.50
14733;DHT22;7457;50.960;6.830;2023-07-28T15:09:50;25.00;76.30
14733;DHT22;7457;50.960;6.830;2023-07-28T15:12:16;24.80;76.30
14733;DHT22;7457;50.960;6.830;2023-07-28T15:14:41;24.60;76.40
14733;DHT22;7457;50.960;6.830;2023-07-28T15:17:07;24.40;76.80
14733;DHT22;7457;50.960;6.830;2023-07-28T15:19:32;24.30;77.30
14733;DHT22;7457;50.960;6.830;2023-07-28T15:21:58;24.10;78.10
14733;DHT22;7457;50.960;6.830;2023-07-28T15:24:24;24.00;78.50
14733;DHT22;7457;50.960;6.830;2023-07-28T15:26:49;24.00;78.80
14733;DHT22;7457;50.960;6.830;2023-07-28T15:29:17;23.90;79.20
14733;DHT22;7457;50.960;6.830;2023-07-28T15:31:43;23.90;79.50
14733;DHT22;7457;50.960;6.830;2023-07-28T15:34:09;23.90;79.60
14733;DHT22;7457;50.960;6.830;2023-07-28T15:36:34;23.90;79.50
14733;DHT22;7457;50.960;6.830;2023-07-28T15:39:00;23.80;79.40
14733;DHT22;7457;50.960;6.830;2023-07-28T15:41:26;23.70;79.60
14733;DHT22;7457;50.960;6.830;2023-07-28T15:43:52;23.60;79.70
14733;DHT22;7457;50.960;6.830;2023-07-28T15:46:17;23.50;79.80